createdAt,value
2018-05-09T00:00:39.469Z,19.63
2018-05-09T00:03:06.370Z,18.93
2018-05-09T00:05:32.998Z,20.50
2018-05-09T00:07:59.980Z,19.80
2018-05-09T00:10:26.648Z,17.63
2018-05-09T00:12:54.374Z,19.67
2018-05-09T00:15:21.096Z,19.30
2018-05-09T00:17:47.820Z,20.13
2018-05-09T00:20:14.541Z,17.97
2018-05-09T00:22:42.427Z,20.07
2018-05-09T00:25:09.057Z,18.57
2018-05-09T00:27:35.724Z,19.90
2018-05-09T00:30:02.332Z,19.97
2018-05-09T00:32:35.198Z,20.10
2018-05-09T00:35:01.955Z,19.33
2018-05-09T00:37:28.717Z,20.23
2018-05-09T00:39:55.386Z,19.60
2018-05-09T00:42:22.103Z,20.03
2018-05-09T00:44:48.903Z,19.90
2018-05-09T00:47:15.643Z,20.67
2018-05-09T00:49:42.457Z,19.53
2018-05-09T00:52:13.924Z,18.73
2018-05-09T00:54:40.441Z,19.13
2018-05-09T00:57:07.121Z,19.50
2018-05-09T00:59:34.385Z,18.57
2018-05-09T01:02:07.993Z,17.47
2018-05-09T01:04:34.649Z,18.27
2018-05-09T01:07:01.869Z,18.03
2018-05-09T01:09:28.497Z,17.40
2018-05-09T01:11:55.376Z,18.07
2018-05-09T01:14:21.946Z,16.63
2018-05-09T01:16:48.571Z,17.83
2018-05-09T01:19:15.489Z,16.60
2018-05-09T01:21:45.696Z,18.23
2018-05-09T01:24:12.277Z,17.60
2018-05-09T01:26:38.963Z,17.17
2018-05-09T01:29:05.599Z,16.00
2018-05-09T01:31:35.568Z,16.87
2018-05-09T01:34:02.282Z,17.33
2018-05-09T01:36:29.014Z,16.57
2018-05-09T01:38:55.723Z,16.30
2018-05-09T01:41:25.877Z,16.53
2018-05-09T01:43:52.681Z,16.77
2018-05-09T01:46:19.317Z,16.50
2018-05-09T01:48:46.088Z,17.30
2018-05-09T01:51:13.895Z,16.10
2018-05-09T01:53:40.621Z,16.50
2018-05-09T01:56:07.235Z,15.83
2018-05-09T01:58:34.029Z,15.37
2018-05-09T02:01:00.619Z,15.17
2018-05-09T02:03:27.261Z,16.13
2018-05-09T02:05:53.885Z,14.97
2018-05-09T02:08:20.373Z,16.43
2018-05-09T02:10:50.665Z,15.10
2018-05-09T02:13:17.349Z,17.97
2018-05-09T02:15:43.925Z,16.90
2018-05-09T02:18:10.522Z,16.07
2018-05-09T02:20:38.208Z,15.40
2018-05-09T02:23:04.817Z,16.73
2018-05-09T02:25:31.465Z,15.87
2018-05-09T02:27:58.200Z,17.33
2018-05-09T02:30:24.860Z,16.13
2018-05-09T02:32:51.601Z,15.93
2018-05-09T02:35:18.853Z,15.40
2018-05-09T02:37:46.204Z,15.67
2018-05-09T02:40:13.094Z,14.87
2018-05-09T02:42:46.500Z,15.43
2018-05-09T02:45:13.089Z,14.77
2018-05-09T02:47:40.217Z,16.00
2018-05-09T02:50:07.067Z,14.27
2018-05-09T02:52:35.034Z,13.60
2018-05-09T02:55:02.017Z,14.20
2018-05-09T02:57:28.573Z,14.47
2018-05-09T02:59:55.127Z,15.40
2018-05-09T03:02:22.778Z,14.40
2018-05-09T03:04:49.482Z,15.67
2018-05-09T03:07:16.990Z,13.87
2018-05-09T03:09:43.621Z,14.17
2018-05-09T03:12:10.842Z,14.33
2018-05-09T03:14:37.404Z,14.97
2018-05-09T03:17:04.125Z,14.87
2018-05-09T03:19:30.995Z,14.63
2018-05-09T03:22:01.613Z,14.77
2018-05-09T03:24:28.291Z,14.83
2018-05-09T03:26:55.062Z,14.10
2018-05-09T03:29:21.794Z,14.83
2018-05-09T03:31:53.802Z,15.37
2018-05-09T03:34:20.496Z,14.83
2018-05-09T03:36:47.193Z,15.40
2018-05-09T03:39:13.805Z,14.80
2018-05-09T03:41:44.103Z,16.07
2018-05-09T03:44:10.740Z,15.03
2018-05-09T03:46:37.398Z,15.00
2018-05-09T03:49:05.059Z,16.20
2018-05-09T03:51:35.068Z,15.50
2018-05-09T03:54:01.854Z,15.57
2018-05-09T03:56:28.628Z,15.77
2018-05-09T03:58:55.266Z,15.60
2018-05-09T04:01:25.538Z,16.37
2018-05-09T04:04:04.277Z,17.07
2018-05-09T04:06:43.119Z,16.70
2018-05-09T04:09:21.816Z,15.97
2018-05-09T04:11:54.209Z,15.33
2018-05-09T04:14:20.721Z,14.47
2018-05-09T04:16:47.478Z,15.37
2018-05-09T04:19:14.036Z,16.17
2018-05-09T04:21:46.364Z,14.03
2018-05-09T04:24:13.587Z,14.53
2018-05-09T04:26:40.340Z,14.70
2018-05-09T04:29:07.014Z,15.43
2018-05-09T04:31:37.333Z,15.80
2018-05-09T04:34:04.002Z,16.10
2018-05-09T04:36:31.302Z,15.57
2018-05-09T04:38:58.073Z,15.13
2018-05-09T04:41:42.880Z,15.60
2018-05-09T04:44:09.433Z,15.70
2018-05-09T04:46:36.129Z,15.23
2018-05-09T04:49:03.089Z,14.57
2018-05-09T04:51:33.411Z,14.37
2018-05-09T04:54:00.363Z,15.37
2018-05-09T04:56:27.302Z,13.67
2018-05-09T04:58:53.964Z,14.57
2018-05-09T05:01:21.991Z,12.90
2018-05-09T05:03:48.647Z,12.43
2018-05-09T05:06:15.307Z,12.93
2018-05-09T05:08:43.327Z,11.53
2018-05-09T05:11:11.271Z,12.53
2018-05-09T05:13:37.752Z,12.10
2018-05-09T05:16:04.584Z,11.90
2018-05-09T05:18:31.589Z,13.53
2018-05-09T05:21:08.809Z,11.67
2018-05-09T05:23:35.500Z,12.13
2018-05-09T05:26:02.445Z,12.10
2018-05-09T05:28:29.150Z,12.00
2018-05-09T05:30:56.015Z,11.73
2018-05-09T05:33:22.713Z,11.67
2018-05-09T05:35:49.905Z,12.63
2018-05-09T05:38:16.655Z,12.10
2018-05-09T05:40:43.585Z,11.87
2018-05-09T05:43:10.853Z,10.87
2018-05-09T05:45:37.520Z,11.87
2018-05-09T05:48:05.033Z,11.87
2018-05-09T05:50:42.126Z,13.17
2018-05-09T05:53:09.065Z,10.97
2018-05-09T05:55:35.616Z,11.20
2018-05-09T05:58:02.181Z,11.90
2018-05-09T06:00:32.833Z,12.23
2018-05-09T06:02:59.527Z,12.17
2018-05-09T06:05:26.254Z,12.17
2018-05-09T06:07:52.921Z,11.47
2018-05-09T06:10:20.707Z,11.83
2018-05-09T06:12:47.435Z,11.90
2018-05-09T06:15:14.783Z,12.33
2018-05-09T06:17:41.402Z,11.70
2018-05-09T06:20:11.898Z,12.17
2018-05-09T06:22:38.664Z,12.57
2018-05-09T06:25:05.219Z,12.67
2018-05-09T06:27:32.185Z,11.57
2018-05-09T06:30:00.017Z,10.70
2018-05-09T06:32:26.771Z,10.10
2018-05-09T06:34:53.473Z,10.80
2018-05-09T06:37:20.051Z,9.73
2018-05-09T06:39:46.845Z,11.23
2018-05-09T06:42:13.597Z,11.70
2018-05-09T06:44:40.248Z,10.63
2018-05-09T06:47:07.508Z,10.20
2018-05-09T06:49:34.249Z,9.97
2018-05-09T06:52:06.697Z,9.77
2018-05-09T06:54:33.426Z,10.60
2018-05-09T06:57:00.051Z,11.10
2018-05-09T06:59:27.714Z,11.63
2018-05-09T07:01:58.390Z,10.97
2018-05-09T07:04:25.036Z,11.30
2018-05-09T07:06:52.029Z,11.27
2018-05-09T07:09:18.966Z,9.70
2018-05-09T07:11:46.603Z,10.87
2018-05-09T07:14:13.239Z,11.27
2018-05-09T07:16:40.317Z,10.53
2018-05-09T07:19:06.929Z,11.63
2018-05-09T07:21:34.719Z,10.20
2018-05-09T07:24:01.412Z,11.20
2018-05-09T07:26:28.093Z,12.07
2018-05-09T07:28:54.793Z,10.70
2018-05-09T07:31:28.757Z,10.73
2018-05-09T07:33:55.850Z,10.20
2018-05-09T07:36:22.587Z,10.77
2018-05-09T07:38:49.294Z,11.77
2018-05-09T07:41:33.596Z,9.13
2018-05-09T07:44:00.240Z,9.03
2018-05-09T07:46:26.925Z,9.73
2018-05-09T07:48:53.677Z,10.20
2018-05-09T07:51:21.831Z,9.50
2018-05-09T07:53:48.537Z,9.27
2018-05-09T07:56:15.764Z,10.80
2018-05-09T07:58:42.452Z,9.40
2018-05-09T08:01:10.298Z,10.50
2018-05-09T08:03:36.841Z,9.53
2018-05-09T08:06:03.676Z,10.37
2018-05-09T08:08:30.156Z,10.77
2018-05-09T08:10:57.112Z,9.53
2018-05-09T08:13:23.860Z,9.43
2018-05-09T08:15:50.515Z,8.90
2018-05-09T08:18:17.259Z,9.93
2018-05-09T08:20:46.958Z,9.20
2018-05-09T08:23:13.645Z,9.33
2018-05-09T08:25:40.646Z,7.97
2018-05-09T08:28:07.456Z,8.17
2018-05-09T08:30:37.625Z,7.27
2018-05-09T08:33:04.296Z,8.37
2018-05-09T08:35:31.054Z,8.30
2018-05-09T08:37:57.664Z,7.60
2018-05-09T08:40:24.251Z,7.60
2018-05-09T08:42:50.791Z,8.27
2018-05-09T08:45:17.409Z,6.67
2018-05-09T08:47:43.932Z,7.43
2018-05-09T08:50:14.082Z,7.07
2018-05-09T08:52:40.876Z,7.43
2018-05-09T08:55:07.503Z,7.90
2018-05-09T08:57:34.183Z,8.07
2018-05-09T09:00:14.554Z,7.67
2018-05-09T09:02:41.250Z,7.10
2018-05-09T09:05:07.897Z,6.83
2018-05-09T09:07:34.594Z,6.90
2018-05-09T09:10:02.142Z,6.43
2018-05-09T09:12:28.915Z,7.27
2018-05-09T09:14:55.633Z,7.03
2018-05-09T09:17:22.297Z,6.70
2018-05-09T09:19:52.290Z,7.20
2018-05-09T09:22:18.909Z,6.60
2018-05-09T09:24:45.578Z,6.13
2018-05-09T09:27:12.767Z,7.37
2018-05-09T09:29:47.261Z,5.90
2018-05-09T09:32:14.277Z,7.30
2018-05-09T09:34:40.925Z,6.47
2018-05-09T09:37:07.664Z,5.63
2018-05-09T09:39:35.648Z,6.03
2018-05-09T09:42:02.409Z,6.83
2018-05-09T09:44:29.086Z,5.30
2018-05-09T09:46:55.577Z,5.60
2018-05-09T09:49:23.450Z,5.63
2018-05-09T09:51:50.183Z,5.67
2018-05-09T09:54:17.062Z,5.83
2018-05-09T09:56:44.433Z,6.27
2018-05-09T09:59:11.149Z,6.20
2018-05-09T10:01:37.902Z,6.10
2018-05-09T10:04:04.409Z,7.30
2018-05-09T10:06:31.177Z,6.70
2018-05-09T10:08:58.219Z,7.17
2018-05-09T10:11:25.959Z,5.90
2018-05-09T10:13:52.658Z,6.77
2018-05-09T10:16:19.323Z,6.43
2018-05-09T10:18:46.251Z,6.67
2018-05-09T10:21:17.497Z,7.37
2018-05-09T10:23:44.246Z,6.07
2018-05-09T10:26:10.992Z,8.23
2018-05-09T10:28:37.570Z,8.27
2018-05-09T10:31:05.201Z,8.00
2018-05-09T10:33:31.848Z,9.23
2018-05-09T10:35:58.571Z,7.93
2018-05-09T10:38:25.227Z,8.40
2018-05-09T10:40:55.194Z,7.87
2018-05-09T10:43:22.029Z,7.53
2018-05-09T10:45:48.823Z,7.70
2018-05-09T10:48:15.446Z,7.93
2018-05-09T10:50:43.491Z,7.10
2018-05-09T10:53:10.144Z,6.50
2018-05-09T10:55:36.701Z,5.60
2018-05-09T10:58:03.775Z,6.00
2018-05-09T11:00:34.103Z,5.67
2018-05-09T11:03:00.677Z,5.83
2018-05-09T11:05:27.260Z,5.00
2018-05-09T11:07:54.302Z,5.10
2018-05-09T11:10:22.053Z,5.80
2018-05-09T11:12:48.692Z,6.50
2018-05-09T11:15:15.475Z,7.07
2018-05-09T11:17:42.066Z,7.00
2018-05-09T11:20:12.053Z,7.03
2018-05-09T11:22:38.617Z,7.37
2018-05-09T11:25:05.348Z,6.57
2018-05-09T11:27:32.074Z,6.87
2018-05-09T11:30:08.856Z,7.37
2018-05-09T11:32:35.872Z,7.97
2018-05-09T11:35:02.499Z,7.77
2018-05-09T11:37:29.107Z,7.47
2018-05-09T11:39:56.655Z,8.37
2018-05-09T11:42:23.299Z,8.87
2018-05-09T11:44:50.161Z,8.03
2018-05-09T11:47:16.786Z,8.53
2018-05-09T11:49:53.871Z,9.00
2018-05-09T11:52:20.529Z,8.20
2018-05-09T11:54:47.073Z,8.73
2018-05-09T11:57:13.721Z,9.70
2018-05-09T11:59:44.003Z,9.90
2018-05-09T12:02:10.681Z,8.80
2018-05-09T12:04:37.359Z,9.57
2018-05-09T12:07:04.023Z,10.03
2018-05-09T12:09:36.129Z,9.87
2018-05-09T12:12:02.669Z,9.10
2018-05-09T12:14:29.561Z,7.53
2018-05-09T12:16:56.172Z,7.13
2018-05-09T12:19:30.618Z,5.77
2018-05-09T12:28:40.636Z,6.43
2018-05-09T12:31:12.548Z,6.23
2018-05-09T12:33:39.511Z,7.37
2018-05-09T12:36:06.236Z,6.87
2018-05-09T12:38:32.971Z,8.00
2018-05-09T12:41:03.155Z,7.87
2018-05-09T12:43:29.912Z,8.03
2018-05-09T12:45:56.807Z,6.73
2018-05-09T12:48:23.469Z,6.90
2018-05-09T12:50:53.751Z,7.20
2018-05-09T12:53:20.467Z,7.07
2018-05-09T12:55:47.121Z,6.87
2018-05-09T12:58:13.703Z,7.20
2018-05-09T13:00:45.816Z,6.87
2018-05-09T13:03:12.457Z,6.90
2018-05-09T13:05:39.363Z,6.77
2018-05-09T13:08:06.056Z,6.43
2018-05-09T13:10:32.941Z,6.43
2018-05-09T13:12:59.907Z,5.33
2018-05-09T13:15:26.646Z,5.70
2018-05-09T13:17:53.305Z,5.70
2018-05-09T13:20:23.361Z,6.07
2018-05-09T13:22:50.216Z,6.30
2018-05-09T13:25:16.971Z,5.50
2018-05-09T13:27:44.297Z,6.13
2018-05-09T13:30:18.651Z,6.43
2018-05-09T13:32:45.217Z,5.73
2018-05-09T13:35:12.430Z,6.03
2018-05-09T13:37:38.985Z,5.90
2018-05-09T13:40:05.786Z,5.87
2018-05-09T13:42:32.929Z,6.33
2018-05-09T13:44:59.590Z,7.13
2018-05-09T13:47:26.330Z,6.43
2018-05-09T13:49:53.898Z,6.40
2018-05-09T13:52:21.130Z,5.50
2018-05-09T13:54:47.878Z,6.33
2018-05-09T13:57:14.515Z,5.37
2018-05-09T13:59:47.712Z,5.33
2018-05-09T14:02:14.906Z,4.37
2018-05-09T14:04:41.855Z,4.33
2018-05-09T14:07:08.787Z,4.40
2018-05-09T14:09:43.005Z,4.67
2018-05-09T14:12:09.814Z,4.90
2018-05-09T14:14:36.523Z,4.43
2018-05-09T14:17:03.244Z,4.70
2018-05-09T14:19:42.881Z,3.97
2018-05-09T14:22:09.926Z,3.00
2018-05-09T14:24:36.871Z,3.30
2018-05-09T14:27:03.513Z,2.30
2018-05-09T14:29:34.723Z,2.27
2018-05-09T14:32:02.344Z,2.63
2018-05-09T14:34:28.965Z,3.17
2018-05-09T14:36:55.609Z,3.20
2018-05-09T14:39:26.087Z,2.17
2018-05-09T14:41:52.716Z,2.13
2018-05-09T14:44:19.347Z,2.10
2018-05-09T14:46:46.466Z,2.67
2018-05-09T14:49:16.836Z,2.17
2018-05-09T14:51:43.541Z,1.77
2018-05-09T14:54:10.128Z,1.60
2018-05-09T14:56:36.760Z,1.67
2018-05-09T14:59:04.567Z,1.67
2018-05-09T15:01:31.165Z,1.83
2018-05-09T15:03:57.885Z,1.17
2018-05-09T15:06:24.461Z,1.97
2018-05-09T15:09:08.083Z,1.47
2018-05-09T15:11:34.701Z,2.07
2018-05-09T15:14:01.581Z,2.10
2018-05-09T15:16:28.226Z,1.97
2018-05-09T15:18:56.000Z,1.40
2018-05-09T15:21:22.642Z,2.67
2018-05-09T15:23:49.246Z,1.80
2018-05-09T15:26:15.975Z,2.03
2018-05-09T15:28:46.126Z,1.50
2018-05-09T15:31:12.814Z,1.77
2018-05-09T15:33:39.816Z,1.70
2018-05-09T15:36:06.513Z,1.67
2018-05-09T15:38:34.121Z,1.80
2018-05-09T15:41:00.847Z,1.83
2018-05-09T15:43:27.792Z,1.40
2018-05-09T15:45:54.383Z,1.47
2018-05-09T15:48:21.014Z,1.60
2018-05-09T15:50:47.808Z,1.83
2018-05-09T15:53:14.571Z,1.80
2018-05-09T15:55:41.114Z,1.40
2018-05-09T15:58:07.733Z,5.40
2018-05-09T16:00:37.652Z,10.03
2018-05-09T16:03:04.167Z,13.80
2018-05-09T16:05:30.699Z,12.73
2018-05-09T16:07:57.346Z,9.23
2018-05-09T16:10:28.403Z,4.97
2018-05-09T16:12:55.440Z,3.80
2018-05-09T16:15:22.151Z,2.73
2018-05-09T16:17:48.828Z,2.70
2018-05-09T16:20:21.423Z,2.93
2018-05-09T16:22:48.764Z,3.17
2018-05-09T16:25:16.647Z,3.00
2018-05-09T16:27:43.340Z,2.93
2018-05-09T16:30:13.090Z,2.40
2018-05-09T16:32:39.691Z,2.70
2018-05-09T16:35:06.646Z,2.60
2018-05-09T16:37:33.407Z,2.90
2018-05-09T16:40:00.121Z,2.70
2018-05-09T16:42:26.728Z,2.87
2018-05-09T16:44:53.444Z,3.43
2018-05-09T16:47:20.130Z,3.13
2018-05-09T16:49:53.770Z,4.00
2018-05-09T16:52:20.382Z,3.97
2018-05-09T16:54:47.176Z,2.93
2018-05-09T16:57:14.160Z,3.13
2018-05-09T16:59:47.349Z,2.40
2018-05-09T17:02:14.035Z,2.60
2018-05-09T17:04:40.650Z,2.40
2018-05-09T17:07:07.352Z,2.50
2018-05-09T17:09:37.910Z,2.00
2018-05-09T17:12:04.689Z,2.50
2018-05-09T17:21:42.533Z,4.33
2018-05-09T17:24:09.157Z,10.73
2018-05-09T17:26:35.856Z,9.83
2018-05-09T17:29:02.542Z,7.73
2018-05-09T17:31:29.115Z,7.40
2018-05-09T17:33:55.787Z,10.60
2018-05-09T17:36:22.432Z,4.67
2018-05-09T17:38:50.055Z,12.87
2018-05-09T17:41:16.759Z,4.67
2018-05-09T17:43:43.486Z,5.50
2018-05-09T17:46:10.104Z,4.70
2018-05-09T17:48:36.827Z,4.13
2018-05-09T17:51:03.427Z,5.00
2018-05-09T17:53:30.762Z,5.87
2018-05-09T17:55:57.285Z,9.17
2018-05-09T17:58:29.514Z,4.40
2018-05-09T18:00:56.115Z,6.57
2018-05-09T18:03:24.131Z,4.97
2018-05-09T18:05:50.738Z,7.87
2018-05-09T18:08:21.727Z,6.13
2018-05-09T18:10:48.488Z,4.80
2018-05-09T18:13:15.002Z,4.87
2018-05-09T18:15:41.742Z,4.60
2018-05-09T18:18:08.367Z,4.30
2018-05-09T18:20:35.022Z,5.07
2018-05-09T18:23:01.713Z,4.63
2018-05-09T18:25:28.326Z,5.60
2018-05-09T18:27:55.072Z,5.33
2018-05-09T18:30:21.614Z,5.60
2018-05-09T18:32:48.309Z,5.87
2018-05-09T18:35:15.042Z,5.47
2018-05-09T18:37:42.672Z,5.60
2018-05-09T18:40:13.042Z,6.20
2018-05-09T18:42:39.914Z,5.40
2018-05-09T18:45:06.393Z,5.43
2018-05-09T18:47:33.115Z,5.73
2018-05-09T18:50:00.985Z,6.43
2018-05-09T18:52:27.560Z,6.40
2018-05-09T18:54:54.171Z,6.17
2018-05-09T18:57:20.780Z,7.30
2018-05-09T18:59:53.631Z,6.93
2018-05-09T19:02:20.574Z,7.70
2018-05-09T19:04:47.225Z,7.97
2018-05-09T19:07:13.862Z,7.70
2018-05-09T19:09:40.635Z,8.40
2018-05-09T19:12:07.405Z,8.57
2018-05-09T19:14:34.025Z,7.90
2018-05-09T19:17:00.517Z,8.13
2018-05-09T19:19:30.740Z,9.30
2018-05-09T19:21:57.227Z,7.33
2018-05-09T19:24:24.050Z,8.37
2018-05-09T19:26:50.813Z,7.67
2018-05-09T19:29:17.510Z,7.83
2018-05-09T19:31:44.300Z,7.43
2018-05-09T19:34:11.571Z,6.20
2018-05-09T19:36:38.176Z,8.10
2018-05-09T19:39:05.256Z,9.47
2018-05-09T19:41:31.942Z,11.67
2018-05-09T19:43:58.491Z,10.53
2018-05-09T19:46:24.982Z,11.90
2018-05-09T19:48:51.623Z,12.13
2018-05-09T19:51:18.258Z,11.13
2018-05-09T19:53:44.876Z,10.77
2018-05-09T19:56:11.386Z,10.90
2018-05-09T19:58:39.022Z,9.20
2018-05-09T20:01:05.582Z,8.20
2018-05-09T20:03:32.247Z,8.33
2018-05-09T20:05:58.857Z,7.53
2018-05-09T20:08:33.751Z,6.70
2018-05-09T20:11:00.266Z,6.30
2018-05-09T20:13:26.884Z,6.17
2018-05-09T20:15:53.584Z,6.27
2018-05-09T20:18:20.214Z,6.10
2018-05-09T20:20:46.815Z,5.73
2018-05-09T20:23:13.491Z,7.03
2018-05-09T20:25:40.132Z,6.40
2018-05-09T20:28:12.327Z,7.60
2018-05-09T20:33:34.084Z,6.63
2018-05-09T20:36:00.697Z,7.03
2018-05-09T20:38:27.576Z,6.73
2018-05-09T20:40:54.215Z,6.23
2018-05-09T20:43:20.930Z,6.27
2018-05-09T20:45:47.480Z,6.70
2018-05-09T20:48:14.963Z,5.90
2018-05-09T20:50:41.631Z,5.70
2018-05-09T20:53:08.391Z,7.27
2018-05-09T20:55:35.945Z,7.27
2018-05-09T20:58:06.454Z,7.10
2018-05-09T21:00:33.019Z,7.07
2018-05-09T21:02:59.874Z,7.13
2018-05-09T21:05:26.535Z,6.67
2018-05-09T21:07:56.359Z,7.10
2018-05-09T21:10:22.965Z,6.50
2018-05-09T21:12:49.507Z,7.07
2018-05-09T21:15:16.069Z,6.63
2018-05-09T21:17:46.409Z,7.53
2018-05-09T21:20:13.170Z,7.43
2018-05-09T21:22:39.572Z,7.53
2018-05-09T21:25:06.164Z,7.40
2018-05-09T21:27:32.759Z,6.93
2018-05-09T21:29:59.771Z,6.70
2018-05-09T21:32:26.566Z,6.90
2018-05-09T21:34:53.320Z,7.80
2018-05-09T21:37:19.887Z,7.03
2018-05-09T21:39:49.916Z,7.30
2018-05-09T21:42:17.533Z,7.67
2018-05-09T21:44:44.184Z,7.93
2018-05-09T21:47:10.858Z,9.23
2018-05-09T21:49:43.320Z,8.20
2018-05-09T21:52:09.986Z,7.97
2018-05-09T21:54:36.743Z,7.83
2018-05-09T21:57:03.467Z,8.47
2018-05-09T21:59:31.309Z,8.20
2018-05-09T22:01:57.954Z,9.37
2018-05-09T22:04:24.649Z,9.50
2018-05-09T22:06:51.303Z,9.33
2018-05-09T22:09:21.850Z,11.43
2018-05-09T22:11:48.682Z,9.70
2018-05-09T22:14:15.937Z,9.53
2018-05-09T22:16:42.605Z,9.83
2018-05-09T22:19:10.453Z,9.63
2018-05-09T22:21:37.002Z,10.00
2018-05-09T22:24:03.647Z,9.10
2018-05-09T22:26:30.584Z,9.30
2018-05-09T22:28:57.467Z,9.17
2018-05-09T22:31:24.030Z,8.93
2018-05-09T22:33:51.172Z,9.60
2018-05-09T22:36:17.915Z,9.30
2018-05-09T22:38:44.728Z,8.77
2018-05-09T22:41:11.383Z,9.40
2018-05-09T22:43:37.935Z,9.43
2018-05-09T22:46:04.582Z,9.47
2018-05-09T22:48:31.675Z,9.67
2018-05-09T22:50:58.494Z,10.47
2018-05-09T22:53:25.125Z,9.27
2018-05-09T22:55:51.848Z,10.10
2018-05-09T22:58:19.519Z,10.60
2018-05-09T23:00:46.220Z,10.17
2018-05-09T23:03:13.173Z,10.20
2018-05-09T23:05:40.179Z,8.60
2018-05-09T23:08:06.806Z,9.87
2018-05-09T23:10:33.547Z,8.50
2018-05-09T23:13:00.226Z,8.33
2018-05-09T23:15:27.198Z,8.40
2018-05-09T23:17:57.566Z,8.47
2018-05-09T23:20:24.179Z,9.10
2018-05-09T23:22:51.508Z,9.27
2018-05-09T23:25:18.042Z,9.83
2018-05-09T23:27:45.934Z,10.10
2018-05-09T23:30:12.549Z,10.03
2018-05-09T23:32:39.160Z,10.70
2018-05-09T23:35:05.858Z,9.33
2018-05-09T23:37:35.687Z,10.67
2018-05-09T23:40:02.241Z,9.83
2018-05-09T23:42:28.903Z,10.17
2018-05-09T23:44:55.396Z,10.27
2018-05-09T23:47:22.081Z,10.03
2018-05-09T23:49:50.007Z,9.33
2018-05-09T23:52:16.760Z,8.97
2018-05-09T23:54:43.206Z,9.00
2018-05-09T23:57:09.841Z,8.67
2018-05-09T23:59:36.528Z,9.10
